Time;durP1;ratioP1;P1;durP2;ratioP2;P2;SDS_P1;SDS_P2;PMS_P1;PMS_P2;Temp;Humidity;BMP_temperature;BMP_pressure;BME280_temperature;BME280_humidity;BME280_pressure;Samples;Min_cycle;Max_cycle;Signal;HPM_P1;HPM_P2
2022/12/31 00:05:04;;;;;;;67.70;37.00;;;;;;;2.24;88.19;98526.34;421043;1287;111855;-39
2022/12/31 00:15:10;;;;;;;57.40;32.50;;;;;;;2.73;88.36;98541.33;420932;1283;107833;-41
2022/12/31 00:45:28;;;;;;;33.70;20.00;;;;;;;4.06;88.96;98518.36;420926;1284;98367;-39
2022/12/31 00:55:35;;;;;;;32.70;19.50;;;;;;;4.43;88.71;98518.29;420929;1298;113085;-40
2022/12/31 01:05:42;;;;;;;42.90;22.80;;;;;;;4.62;88.55;98521.16;420888;1290;107703;-39
2022/12/31 01:15:49;;;;;;;24.90;14.50;;;;;;;4.83;88.58;98530.21;421048;1295;99327;-41
2022/12/31 01:25:55;;;;;;;24.10;15.10;;;;;;;5.11;88.37;98520.08;420899;1294;109339;-40
2022/12/31 01:36:03;;;;;;;21.20;13.50;;;;;;;5.24;88.07;98509.80;420926;1298;99265;-38
2022/12/31 01:46:12;;;;;;;22.60;13.50;;;;;;;5.32;87.96;98491.82;420847;1298;110437;-40
2022/12/31 01:56:22;;;;;;;29.70;15.10;;;;;;;5.42;87.99;98501.06;420883;1292;107565;-40
2022/12/31 02:06:31;;;;;;;23.20;13.40;;;;;;;5.55;88.05;98503.06;421033;1298;99211;-39
2022/12/31 02:16:41;;;;;;;21.40;12.20;;;;;;;5.70;87.89;98484.35;421069;1294;106416;-39
2022/12/31 02:26:49;;;;;;;18.60;10.80;;;;;;;5.84;88.03;98464.56;420905;1299;99240;-40
2022/12/31 02:37:00;;;;;;;18.30;10.70;;;;;;;5.96;87.90;98467.27;417281;1267;6269858;-40
2022/12/31 02:57:20;;;;;;;27.00;14.00;;;;;;;6.04;87.82;98479.07;420956;1294;99246;-39
2022/12/31 03:07:30;;;;;;;17.70;11.80;;;;;;;6.05;87.80;98484.29;420953;1298;108647;-39
2022/12/31 03:17:37;;;;;;;15.90;9.50;;;;;;;6.14;87.96;98492.30;420992;1291;98892;-39
2022/12/31 03:27:45;;;;;;;14.20;9.70;;;;;;;6.21;87.85;98484.19;420849;1293;112262;-40
2022/12/31 03:37:53;;;;;;;16.60;10.10;;;;;;;6.29;87.91;98498.27;420832;1298;107274;-40
2022/12/31 03:48:00;;;;;;;17.90;10.80;;;;;;;6.30;87.94;98503.67;420837;1295;99243;-40
2022/12/31 03:58:08;;;;;;;19.50;12.80;;;;;;;6.22;87.92;98509.70;420891;1299;107921;-39
2022/12/31 04:08:15;;;;;;;14.50;9.80;;;;;;;6.19;87.82;98519.90;420699;1298;99197;-40
2022/12/31 04:18:22;;;;;;;14.20;8.80;;;;;;;6.27;87.89;98519.52;420893;1299;112796;-40
2022/12/31 04:28:30;;;;;;;15.80;9.00;;;;;;;6.34;87.88;98542.64;420833;1298;108355;-40
2022/12/31 04:38:37;;;;;;;14.70;9.40;;;;;;;6.39;87.93;98553.89;420781;1298;99252;-41
2022/12/31 04:48:44;;;;;;;15.00;9.60;;;;;;;6.44;87.90;98554.64;420881;1290;108392;-39
2022/12/31 04:58:52;;;;;;;13.30;8.60;;;;;;;6.41;87.96;98550.69;420796;1299;99114;-39
2022/12/31 05:08:59;;;;;;;14.40;8.40;;;;;;;6.37;87.79;98532.77;420797;1298;111784;-41
2022/12/31 05:19:08;;;;;;;13.20;7.70;;;;;;;6.37;87.81;98532.98;420792;1287;107300;-40
2022/12/31 05:29:15;;;;;;;11.40;7.80;;;;;;;6.41;87.72;98523.14;420834;1297;98391;-39
2022/12/31 05:39:22;;;;;;;11.90;7.80;;;;;;;6.46;87.80;98534.23;420893;1287;108421;-41
2022/12/31 05:49:29;;;;;;;10.80;7.80;;;;;;;6.48;87.77;98534.19;420848;1291;98322;-41
2022/12/31 05:59:37;;;;;;;16.90;10.10;;;;;;;6.53;87.86;98559.70;420910;1298;111152;-40
2022/12/31 06:09:44;;;;;;;10.80;7.40;;;;;;;6.58;88.08;98570.12;420819;1298;107306;-40
2022/12/31 06:19:51;;;;;;;10.10;7.00;;;;;;;6.71;87.87;98566.38;420783;1298;99198;-41
2022/12/31 06:29:58;;;;;;;15.70;7.60;;;;;;;6.85;87.73;98562.98;420803;1298;107382;-39
2022/12/31 06:40:06;;;;;;;9.50;6.40;;;;;;;6.94;87.84;98567.05;420817;1303;98058;-41
2022/12/31 06:50:13;;;;;;;10.10;6.40;;;;;;;7.02;87.79;98576.11;420823;1291;112205;-40
2022/12/31 07:00:23;;;;;;;14.90;7.60;;;;;;;7.00;87.79;98580.20;420806;1291;107570;-40
2022/12/31 07:10:30;;;;;;;11.40;7.30;;;;;;;6.95;87.95;98595.44;421041;1298;99216;-40
2022/12/31 07:20:36;;;;;;;9.40;6.40;;;;;;;7.01;87.74;98599.45;421028;1292;108770;-41
2022/12/31 07:30:42;;;;;;;13.50;7.60;;;;;;;7.13;87.81;98601.57;420994;1287;99853;-40
2022/12/31 07:40:51;;;;;;;9.40;6.30;;;;;;;7.22;87.64;98596.19;421022;1299;112394;-41
2022/12/31 07:50:59;;;;;;;12.40;7.20;;;;;;;7.27;87.56;98592.30;420884;1290;107659;-40
2022/12/31 08:01:09;;;;;;;19.20;9.20;;;;;;;7.30;87.61;98600.84;420906;1291;98028;-39
2022/12/31 08:11:14;;;;;;;15.90;9.20;;;;;;;7.58;87.73;98610.99;420994;1295;107650;-41
2022/12/31 08:21:22;;;;;;;14.90;8.70;;;;;;;7.77;87.29;98616.95;420862;1294;99263;-42
2022/12/31 08:31:35;;;;;;;13.70;8.20;;;;;;;8.56;87.77;98630.02;421027;1291;111962;-41
2022/12/31 08:41:46;;;;;;;17.10;10.40;;;;;;;8.79;86.76;98637.23;420716;1291;108626;-39
2022/12/31 08:51:54;;;;;;;13.70;9.40;;;;;;;8.41;86.35;98636.88;420975;1291;99322;-40
2022/12/31 09:02:11;;;;;;;15.90;10.70;;;;;;;8.65;86.64;98626.77;420865;1298;106565;-39
2022/12/31 09:12:22;;;;;;;17.60;10.50;;;;;;;8.95;86.32;98622.33;420955;1292;101532;-39
2022/12/31 09:22:30;;;;;;;16.20;10.90;;;;;;;9.01;85.96;98614.58;420965;1292;111307;-41
2022/12/31 09:32:36;;;;;;;13.00;8.50;;;;;;;9.05;85.55;98611.00;420929;1298;107788;-41
2022/12/31 09:53:07;;;;;;;15.20;9.00;;;;;;;9.32;85.43;98613.02;421002;1292;107692;-39
2022/12/31 10:03:34;;;;;;;14.60;8.70;;;;;;;9.44;85.08;98607.69;420898;1298;98904;-40
2022/12/31 10:13:43;;;;;;;14.00;8.70;;;;;;;9.62;84.68;98605.59;420855;1295;111137;-40
2022/12/31 10:24:03;;;;;;;15.40;9.60;;;;;;;9.68;84.56;98613.20;421044;1298;107150;-41
2022/12/31 10:44:48;;;;;;;13.40;8.40;;;;;;;9.93;84.44;98610.88;420881;1298;106706;-40
2022/12/31 10:55:23;;;;;;;12.50;8.00;;;;;;;10.08;84.51;98598.90;420724;1291;99217;-39
2022/12/31 11:05:49;;;;;;;13.00;7.50;;;;;;;10.09;84.45;98608.92;420868;1291;111691;-40
2022/12/31 11:16:19;;;;;;;15.10;8.10;;;;;;;10.00;84.54;98599.98;420813;1298;107551;-40
2022/12/31 11:26:26;;;;;;;11.80;6.60;;;;;;;10.05;84.43;98587.41;420969;1298;99236;-41
2022/12/31 11:36:36;;;;;;;13.50;6.40;;;;;;;10.18;84.44;98589.33;420807;1291;108012;-40
2022/12/31 11:46:47;;;;;;;11.00;7.10;;;;;;;10.27;84.44;98576.56;420900;1292;98018;-39
2022/12/31 11:56:58;;;;;;;9.20;6.10;;;;;;;10.41;84.47;98569.38;421021;1298;111083;-40
2022/12/31 12:07:13;;;;;;;10.70;6.20;;;;;;;10.63;84.32;98559.55;421003;1291;107932;-40
2022/12/31 12:17:30;;;;;;;10.80;6.90;;;;;;;10.71;84.11;98558.80;420905;1298;98936;-40
2022/12/31 12:27:38;;;;;;;13.90;8.50;;;;;;;10.75;84.20;98552.11;420866;1298;108565;-40
2022/12/31 12:37:44;;;;;;;14.70;8.40;;;;;;;10.71;84.05;98545.83;420809;1294;98052;-40
2022/12/31 12:47:58;;;;;;;11.30;6.80;;;;;;;10.76;83.97;98534.19;420946;1291;112264;-40
2022/12/31 12:58:03;;;;;;;13.90;8.00;;;;;;;10.83;83.69;98534.79;420852;1284;107718;-40
2022/12/31 13:08:09;;;;;;;13.90;8.30;;;;;;;10.85;83.73;98526.41;421034;1291;99193;-41
2022/12/31 13:18:28;;;;;;;11.60;7.20;;;;;;;10.91;83.62;98537.51;420864;1297;107995;-40
2022/12/31 13:28:41;;;;;;;10.10;6.90;;;;;;;10.93;83.41;98538.62;420860;1291;99243;-40
2022/12/31 13:38:47;;;;;;;13.00;8.40;;;;;;;10.85;83.48;98551.02;420946;1297;111282;-40
2022/12/31 13:59:00;;;;;;;;;;;;;;;10.70;83.44;98577.44;420856;1298;99135;-40
2022/12/31 14:09:12;;;;;;;14.50;8.50;;;;;;;10.66;83.57;98586.44;420943;1284;108013;-39
2022/12/31 14:19:18;;;;;;;12.30;7.60;;;;;;;10.57;83.62;98583.16;421028;1295;98343;-40
2022/12/31 14:29:27;;;;;;;15.60;9.40;;;;;;;10.53;83.52;98587.14;420860;1298;112240;-40
2022/12/31 14:39:37;;;;;;;17.20;10.40;;;;;;;10.46;83.61;98593.40;420108;1298;1058963;-40
2022/12/31 14:49:44;;;;;;;24.10;14.60;;;;;;;10.41;83.78;98600.68;420946;1297;99214;-40
2022/12/31 14:59:52;;;;;;;22.10;12.40;;;;;;;10.35;83.85;98608.46;420837;1298;107074;-40
2022/12/31 15:10:02;;;;;;;19.80;10.80;;;;;;;10.22;83.96;98609.41;420927;1296;98597;-39
2022/12/31 15:20:31;;;;;;;19.60;10.40;;;;;;;10.24;83.96;98614.43;420843;1290;110618;-38
2022/12/31 15:30:38;;;;;;;18.40;11.00;;;;;;;10.26;84.12;98616.75;420897;1284;106822;-40
2022/12/31 15:40:45;;;;;;;47.10;22.40;;;;;;;10.28;84.19;98627.52;420993;1298;101758;-40
2022/12/31 15:50:56;;;;;;;33.80;18.30;;;;;;;10.27;84.31;98645.64;420974;1298;108908;-40
2022/12/31 16:01:08;;;;;;;30.70;15.90;;;;;;;10.23;84.37;98639.84;420894;1299;99055;-40
2022/12/31 16:11:17;;;;;;;40.20;17.70;;;;;;;10.26;84.32;98642.86;420918;1298;111012;-41
2022/12/31 16:31:39;;;;;;;21.80;12.80;;;;;;;10.37;84.50;98651.11;420961;1292;99213;-41
2022/12/31 16:41:46;;;;;;;26.20;14.40;;;;;;;10.35;84.64;98652.29;420936;1291;107669;-39
2022/12/31 16:52:01;;;;;;;20.90;11.90;;;;;;;10.46;84.50;98658.37;420921;1291;99252;-42
2022/12/31 17:02:12;;;;;;;20.20;11.10;;;;;;;10.51;84.50;98668.64;420952;1291;112151;-40
2022/12/31 17:12:20;;;;;;;17.90;11.10;;;;;;;10.58;84.56;98672.11;420678;1298;107799;-41
2022/12/31 17:22:30;;;;;;;20.50;12.50;;;;;;;10.60;84.61;98675.86;420888;1298;99146;-41
2022/12/31 17:32:47;;;;;;;17.90;11.40;;;;;;;10.65;84.49;98673.05;420857;1291;108306;-40
2022/12/31 17:42:55;;;;;;;36.20;18.30;;;;;;;10.71;84.40;98676.95;420803;1295;98309;-42
2022/12/31 17:53:11;;;;;;;22.90;14.40;;;;;;;10.73;84.54;98688.83;421007;1291;111894;-41
2022/12/31 18:03:18;;;;;;;21.30;12.00;;;;;;;10.71;84.43;98694.39;420979;1298;107319;-40
2022/12/31 18:13:27;;;;;;;18.30;11.30;;;;;;;10.75;84.36;98701.32;420856;1296;99262;-40
2022/12/31 18:23:39;;;;;;;18.50;11.10;;;;;;;10.84;84.35;98711.02;420909;1298;107118;-41
2022/12/31 18:33:46;;;;;;;17.90;10.40;;;;;;;10.90;84.19;98714.85;420878;1295;99223;-40
2022/12/31 18:43:54;;;;;;;21.60;12.00;;;;;;;10.91;84.27;98708.84;421025;1298;111394;-41
2022/12/31 18:54:03;;;;;;;19.60;10.70;;;;;;;10.89;84.37;98710.02;420876;1298;107681;-41
2022/12/31 19:04:11;;;;;;;17.30;11.00;;;;;;;10.94;84.10;98708.63;420952;1285;101678;-41
2022/12/31 19:14:22;;;;;;;17.10;10.60;;;;;;;11.03;84.12;98715.24;420821;1287;108576;-40
2022/12/31 19:34:36;;;;;;;18.00;11.20;;;;;;;10.99;84.07;98725.05;420844;1299;110893;-41
2022/12/31 19:44:43;;;;;;;19.30;12.60;;;;;;;10.96;83.81;98730.07;420832;1290;108658;-42
2022/12/31 19:54:51;;;;;;;24.50;12.30;;;;;;;10.94;83.72;98740.05;420889;1296;99262;-41
2022/12/31 20:04:57;;;;;;;24.40;12.70;;;;;;;10.88;83.75;98727.64;420764;1303;108203;-41
2022/12/31 20:15:03;;;;;;;19.10;12.10;;;;;;;10.84;83.72;98713.98;420904;1294;99560;-40
2022/12/31 20:25:11;;;;;;;16.90;9.90;;;;;;;10.81;83.72;98710.58;420888;1304;112135;-41
2022/12/31 20:35:17;;;;;;;24.40;12.90;;;;;;;10.77;83.66;98712.36;420836;1300;110800;-41
2022/12/31 20:45:23;;;;;;;19.50;11.10;;;;;;;10.73;83.58;98709.63;420844;1304;99242;-41
2022/12/31 20:55:31;;;;;;;17.70;10.60;;;;;;;10.72;83.74;98714.05;420873;1299;108666;-41
2022/12/31 21:05:38;;;;;;;21.80;13.10;;;;;;;10.62;83.63;98715.21;420888;1286;98603;-41
2022/12/31 21:15:48;;;;;;;16.30;11.10;;;;;;;10.56;83.61;98708.71;420679;1295;112113;-41
2022/12/31 21:25:55;;;;;;;18.50;10.90;;;;;;;10.63;83.63;98726.17;420779;1287;109263;-42
2022/12/31 21:36:03;;;;;;;20.20;10.50;;;;;;;10.69;83.68;98721.86;420861;1295;99227;-40
2022/12/31 21:46:11;;;;;;;16.00;9.20;;;;;;;10.73;83.65;98722.27;420840;1296;107430;-40
2022/12/31 21:56:17;;;;;;;16.90;9.80;;;;;;;10.70;83.62;98734.94;420825;1292;99345;-40
2022/12/31 22:06:25;;;;;;;12.80;7.60;;;;;;;10.75;83.36;98743.89;420771;1295;110124;-41
2022/12/31 22:16:32;;;;;;;15.30;9.80;;;;;;;10.84;83.27;98748.54;420659;1294;109108;-40
2022/12/31 22:26:39;;;;;;;12.40;8.10;;;;;;;10.90;83.14;98742.31;420845;1299;98834;-41
2022/12/31 22:36:52;;;;;;;30.10;16.80;;;;;;;10.93;83.05;98744.22;420787;1299;107959;-41
2022/12/31 22:47:00;;;;;;;10.80;7.30;;;;;;;11.01;82.77;98735.93;420848;1299;98841;-40
2022/12/31 22:57:07;;;;;;;8.80;6.00;;;;;;;11.19;82.39;98728.88;420797;1299;110855;-41
2022/12/31 23:07:17;;;;;;;25.90;18.10;;;;;;;11.27;82.10;98731.81;420819;1299;108252;-41
2022/12/31 23:27:51;;;;;;;19.70;12.30;;;;;;;11.25;81.27;98748.76;420761;1298;109954;-41
2022/12/31 23:37:59;;;;;;;15.10;9.00;;;;;;;11.29;81.00;98754.40;420741;1295;98564;-41
2022/12/31 23:48:05;;;;;;;13.00;7.70;;;;;;;11.24;80.80;98754.09;420830;1294;111944;-41
2022/12/31 23:58:12;;;;;;;11.00;6.90;;;;;;;11.13;80.70;98742.66;420885;1304;107613;-40
